Time;durP1;ratioP1;P1;durP2;ratioP2;P2;SDS_P1;SDS_P2;PMS_P1;PMS_P2;Temp;Humidity;BMP_temperature;BMP_pressure;BME280_temperature;BME280_humidity;BME280_pressure;Samples;Min_cycle;Max_cycle;Signal;HPM_P1;HPM_P2
2022/08/25 00:00:41;;;;;;;9.43;8.30;;;20.60;99.90;;;;;;5054137;28;20456;-72
2022/08/25 00:03:08;;;;;;;9.63;8.40;;;20.60;99.90;;;;;;5054226;28;20485;-72
2022/08/25 00:05:36;;;;;;;16.57;14.10;;;20.70;99.90;;;;;;5054298;28;20453;-72
2022/08/25 00:08:04;;;;;;;9.23;8.03;;;20.60;99.90;;;;;;5055018;28;20472;-73
2022/08/25 00:10:33;;;;;;;8.53;7.80;;;20.50;99.90;;;;;;5054026;28;20493;-72
2022/08/25 00:13:01;;;;;;;10.53;8.87;;;20.50;99.90;;;;;;5054146;28;20818;-72
2022/08/25 00:15:28;;;;;;;8.57;7.67;;;20.60;99.90;;;;;;5054100;28;20446;-72
2022/08/25 00:17:56;;;;;;;9.43;8.53;;;20.50;99.90;;;;;;5054175;28;20452;-72
2022/08/25 00:20:24;;;;;;;9.33;8.50;;;20.50;99.90;;;;;;5054122;28;20488;-73
2022/08/25 00:22:52;;;;;;;10.13;8.03;;;20.50;99.90;;;;;;5053900;28;20554;-73
2022/08/25 00:25:19;;;;;;;8.57;7.77;;;20.50;99.90;;;;;;5053883;28;20434;-73
2022/08/25 00:27:47;;;;;;;10.20;8.60;;;20.20;99.90;;;;;;5053902;28;20460;-73
2022/08/25 00:30:15;;;;;;;13.83;7.90;;;20.40;99.90;;;;;;5054091;28;20460;-73
2022/08/25 00:32:42;;;;;;;8.03;7.30;;;20.40;99.90;;;;;;5053784;28;20477;-73
2022/08/25 00:35:09;;;;;;;10.23;8.67;;;20.30;99.90;;;;;;5053717;28;20821;-73
2022/08/25 00:37:37;;;;;;;11.23;9.10;;;20.30;99.90;;;;;;5053263;28;20913;-73
2022/08/25 00:40:06;;;;;;;8.77;7.87;;;20.30;99.90;;;;;;5053820;28;20450;-73
2022/08/25 00:42:32;;;;;;;8.10;7.47;;;20.30;99.90;;;;;;5053598;28;20490;-73
2022/08/25 00:44:59;;;;;;;11.33;8.20;;;20.30;99.90;;;;;;5053581;28;20450;-72
2022/08/25 00:47:26;;;;;;;8.90;8.10;;;20.30;99.90;;;;;;5053663;28;20453;-73
2022/08/25 00:49:56;;;;;;;12.60;8.87;;;20.20;99.90;;;;;;5053678;28;20449;-73
2022/08/25 00:52:26;;;;;;;8.93;8.17;;;20.20;99.90;;;;;;5054135;28;20462;-73
2022/08/25 00:54:58;;;;;;;12.90;8.60;;;20.20;99.90;;;;;;5053581;28;20441;-73
2022/08/25 00:57:29;;;;;;;14.33;8.53;;;20.20;99.90;;;;;;5053411;28;20438;-73
2022/08/25 00:59:56;;;;;;;14.53;8.63;;;20.10;99.90;;;;;;5053950;28;20441;-73
2022/08/25 01:02:23;;;;;;;9.90;8.83;;;20.20;99.90;;;;;;5053041;28;20493;-73
2022/08/25 01:04:50;;;;;;;12.33;9.30;;;20.10;99.90;;;;;;5053604;28;20441;-73
2022/08/25 01:07:19;;;;;;;8.83;8.03;;;20.10;99.90;;;;;;5053030;28;20446;-73
2022/08/25 01:09:47;;;;;;;16.80;8.67;;;20.10;99.90;;;;;;5053097;28;20456;-73
2022/08/25 01:12:14;;;;;;;9.83;8.57;;;20.20;99.90;;;;;;5053136;28;20517;-73
2022/08/25 01:14:44;;;;;;;11.20;9.90;;;20.10;99.90;;;;;;5053103;28;20601;-73
2022/08/25 01:17:11;;;;;;;14.53;9.33;;;20.10;99.90;;;;;;5053070;28;20438;-73
2022/08/25 01:19:38;;;;;;;10.70;8.80;;;20.10;99.90;;;;;;5053066;28;20449;-73
2022/08/25 01:22:06;;;;;;;13.37;9.40;;;20.10;99.90;;;;;;5069658;28;20469;-72
2022/08/25 01:24:40;;;;;;;10.67;9.03;;;20.10;99.90;;;;;;5069987;28;20449;-73
2022/08/25 01:27:09;;;;;;;10.50;9.07;;;20.00;99.90;;;;;;5055099;28;20434;-73
2022/08/25 01:29:36;;;;;;;11.60;8.70;;;20.20;99.90;;;;;;5053123;28;20453;-73
2022/08/25 01:32:07;;;;;;;12.37;8.80;;;20.00;99.90;;;;;;5053092;28;20500;-73
2022/08/25 01:34:36;;;;;;;13.37;8.87;;;20.00;99.90;;;;;;5052945;28;20902;-73
2022/08/25 01:37:05;;;;;;;9.90;8.90;;;20.00;99.90;;;;;;5052861;28;20457;-73
2022/08/25 01:39:35;;;;;;;10.10;8.80;;;20.00;99.90;;;;;;5053052;28;20441;-73
2022/08/25 01:42:27;;;;;;;9.87;8.83;;;20.00;99.90;;;;;;5052046;28;20481;-73
2022/08/25 01:44:54;;;;;;;12.70;8.43;;;19.90;99.90;;;;;;5052930;28;20430;-73
2022/08/25 01:47:21;;;;;;;10.53;8.90;;;19.90;99.90;;;;;;5052681;28;20938;-73
2022/08/25 01:49:48;;;;;;;11.93;9.40;;;20.00;99.90;;;;;;5053000;28;20901;-73
2022/08/25 01:52:21;;;;;;;10.93;9.83;;;19.80;99.90;;;;;;5052877;28;20831;-73
2022/08/25 01:54:47;;;;;;;10.37;9.17;;;19.80;99.90;;;;;;5052631;28;20430;-73
2022/08/25 01:57:14;;;;;;;12.27;10.97;;;19.80;99.90;;;;;;5052582;28;20454;-73
2022/08/25 01:59:41;;;;;;;11.40;9.40;;;19.80;99.90;;;;;;5052683;28;20453;-73
2022/08/25 02:02:08;;;;;;;9.53;8.40;;;19.80;99.90;;;;;;5052354;28;20543;-73
2022/08/25 02:04:34;;;;;;;10.60;9.50;;;19.80;99.90;;;;;;5052935;28;20817;-73
2022/08/25 02:07:04;;;;;;;10.87;9.30;;;19.80;99.90;;;;;;5052450;28;20449;-73
2022/08/25 02:09:33;;;;;;;12.43;9.70;;;19.80;99.90;;;;;;5052766;28;20456;-73
2022/08/25 02:12:00;;;;;;;13.10;10.00;;;19.80;99.90;;;;;;5052915;28;20826;-73
2022/08/25 02:14:27;;;;;;;10.13;9.23;;;19.70;99.90;;;;;;5052586;28;20454;-73
2022/08/25 02:16:54;;;;;;;10.13;9.13;;;19.70;99.90;;;;;;5052828;28;20450;-73
2022/08/25 02:19:23;;;;;;;12.97;11.50;;;19.70;99.90;;;;;;5052475;28;20457;-73
2022/08/25 02:21:50;;;;;;;11.17;9.30;;;19.70;99.90;;;;;;5052648;28;20466;-73
2022/08/25 02:24:17;;;;;;;13.47;10.37;;;19.70;99.90;;;;;;5052397;28;20535;-74
2022/08/25 02:26:45;;;;;;;11.77;9.93;;;19.70;99.90;;;;;;5052913;28;20442;-73
2022/08/25 02:29:12;;;;;;;12.53;9.60;;;19.80;99.90;;;;;;5052227;28;20458;-73
2022/08/25 02:31:39;;;;;;;14.80;10.50;;;19.80;99.90;;;;;;5052529;28;20852;-73
2022/08/25 02:34:08;;;;;;;14.80;9.50;;;19.70;99.90;;;;;;5052138;28;20962;-73
2022/08/25 02:36:35;;;;;;;11.47;9.93;;;19.70;99.90;;;;;;5052304;28;20827;-73
2022/08/25 02:39:03;;;;;;;13.93;10.77;;;19.70;99.90;;;;;;5052965;28;20461;-73
2022/08/25 02:41:30;;;;;;;12.17;10.90;;;19.70;99.90;;;;;;5052039;28;20928;-73
2022/08/25 02:43:58;;;;;;;13.80;10.90;;;19.60;99.90;;;;;;5052726;28;20488;-74
2022/08/25 02:46:25;;;;;;;12.90;10.10;;;19.60;99.90;;;;;;5052026;28;20449;-73
2022/08/25 02:48:52;;;;;;;11.40;10.20;;;19.60;99.90;;;;;;5052452;28;20503;-73
2022/08/25 02:51:21;;;;;;;13.20;11.10;;;19.60;99.90;;;;;;5052214;28;20880;-73
2022/08/25 02:53:48;;;;;;;14.07;10.60;;;19.60;99.90;;;;;;5056056;28;20491;-73
2022/08/25 02:56:18;;;;;;;12.57;9.90;;;19.50;99.90;;;;;;5055870;28;20454;-73
2022/08/25 02:58:45;;;;;;;13.13;9.80;;;19.50;99.90;;;;;;5055985;28;20495;-73
2022/08/25 03:01:14;;;;;;;12.30;11.10;;;19.60;99.90;;;;;;5057347;28;20477;-73
2022/08/25 03:03:43;;;;;;;11.83;10.70;;;19.50;99.90;;;;;;5057093;28;20565;-73
2022/08/25 03:06:11;;;;;;;14.60;10.37;;;19.50;99.90;;;;;;5061723;28;20828;-73
2022/08/25 03:08:40;;;;;;;11.70;9.90;;;19.40;99.90;;;;;;5069660;28;20499;-75
2022/08/25 03:11:07;;;;;;;12.70;10.20;;;19.40;99.90;;;;;;5063219;28;20481;-73
2022/08/25 03:13:34;;;;;;;16.13;11.40;;;19.40;99.90;;;;;;5056405;28;20462;-73
2022/08/25 03:16:02;;;;;;;12.03;10.73;;;19.40;99.90;;;;;;5055694;28;20452;-73
2022/08/25 03:18:30;;;;;;;12.93;10.83;;;19.40;99.90;;;;;;5055600;28;20445;-73
2022/08/25 03:20:57;;;;;;;15.90;10.33;;;19.40;99.90;;;;;;5055837;28;20532;-73
2022/08/25 03:23:23;;;;;;;10.43;9.43;;;19.40;99.90;;;;;;5055386;28;20481;-73
2022/08/25 03:28:35;;;;;;;13.60;10.97;;;19.40;99.90;;;;;;5055338;28;20789;-73
2022/08/25 03:31:03;;;;;;;18.10;11.00;;;19.40;99.90;;;;;;5055142;28;20539;-73
2022/08/25 03:33:31;;;;;;;15.40;12.83;;;19.60;99.90;;;;;;5055063;28;20519;-73
2022/08/25 03:35:59;;;;;;;14.80;11.53;;;19.30;99.90;;;;;;5055980;28;20467;-73
2022/08/25 03:38:26;;;;;;;14.00;12.00;;;19.20;99.90;;;;;;5055246;28;20452;-73
2022/08/25 03:40:53;;;;;;;17.13;11.93;;;19.20;99.90;;;;;;5055577;28;20445;-73
2022/08/25 03:43:21;;;;;;;13.50;12.17;;;19.20;99.90;;;;;;5114670;22;20532;-75
2022/08/25 03:45:48;;;;;;;14.07;10.73;;;19.20;99.90;;;;;;5136415;27;20993;-75
2022/08/25 03:48:16;;;;;;;12.87;11.57;;;19.20;99.90;;;;;;5136575;27;20450;-75
2022/08/25 03:50:48;;;;;;;22.47;12.80;;;19.20;99.90;;;;;;5136246;27;21004;-75
2022/08/25 03:53:15;;;;;;;15.70;11.43;;;19.20;99.90;;;;;;5136145;27;20462;-75
2022/08/25 03:55:42;;;;;;;14.63;11.80;;;19.20;99.90;;;;;;5136508;27;20442;-76
2022/08/25 03:58:09;;;;;;;15.90;11.80;;;19.10;99.90;;;;;;5137165;27;20442;-75
2022/08/25 04:00:35;;;;;;;15.60;11.93;;;19.10;99.90;;;;;;5136346;27;20796;-75
2022/08/25 04:03:02;;;;;;;15.40;11.97;;;19.10;99.90;;;;;;5135596;27;20485;-76
2022/08/25 04:05:29;;;;;;;13.70;12.00;;;19.10;99.90;;;;;;5136347;27;20819;-75
2022/08/25 04:07:57;;;;;;;17.40;11.53;;;19.20;99.90;;;;;;5136491;27;20450;-76
2022/08/25 04:10:24;;;;;;;16.20;12.27;;;19.20;99.90;;;;;;5136463;27;20449;-75
2022/08/25 04:12:50;;;;;;;15.53;12.63;;;19.20;99.90;;;;;;5135939;27;20462;-76
2022/08/25 04:15:17;;;;;;;20.87;12.60;;;19.20;99.90;;;;;;5136749;27;20446;-76
2022/08/25 04:17:44;;;;;;;19.20;14.97;;;19.20;99.90;;;;;;5136170;27;20441;-76
2022/08/25 04:20:12;;;;;;;13.30;12.00;;;19.20;99.90;;;;;;5136046;27;20450;-76
2022/08/25 04:22:39;;;;;;;16.03;11.60;;;19.20;99.90;;;;;;5135553;27;20462;-76
2022/08/25 04:25:08;;;;;;;13.43;12.03;;;19.20;99.90;;;;;;5135770;27;20841;-76
2022/08/25 04:27:36;;;;;;;14.50;12.57;;;19.10;99.90;;;;;;5135775;27;20438;-76
2022/08/25 04:30:05;;;;;;;16.70;13.27;;;19.10;99.90;;;;;;5135740;27;20506;-76
2022/08/25 04:32:32;;;;;;;13.80;12.40;;;19.20;99.90;;;;;;5135511;27;20462;-76
2022/08/25 04:34:58;;;;;;;15.27;12.67;;;19.20;99.90;;;;;;5135400;27;20474;-76
2022/08/25 04:37:25;;;;;;;16.20;13.20;;;19.20;99.90;;;;;;5135754;27;20469;-76
2022/08/25 04:39:52;;;;;;;16.53;13.60;;;19.20;99.90;;;;;;5135616;27;20520;-76
2022/08/25 04:42:20;;;;;;;15.00;12.30;;;19.10;99.90;;;;;;5135250;27;20466;-76
2022/08/25 04:44:47;;;;;;;14.93;12.37;;;19.10;99.90;;;;;;5135246;27;21050;-76
2022/08/25 04:47:14;;;;;;;16.63;13.10;;;19.10;99.90;;;;;;5135531;27;20446;-76
2022/08/25 04:49:41;;;;;;;16.40;14.60;;;19.20;99.90;;;;;;5135681;27;20445;-76
2022/08/25 04:52:07;;;;;;;14.43;12.93;;;18.80;99.90;;;;;;5135519;27;20442;-76
2022/08/25 04:54:34;;;;;;;17.60;13.27;;;19.10;99.90;;;;;;5135707;27;20446;-76
2022/08/25 04:57:01;;;;;;;18.97;14.40;;;19.10;99.90;;;;;;5135469;27;20457;-76
2022/08/25 04:59:29;;;;;;;15.97;13.70;;;19.20;99.90;;;;;;5136517;27;20442;-75
2022/08/25 05:01:57;;;;;;;17.40;14.80;;;19.20;99.90;;;;;;5139613;27;20453;-75
2022/08/25 05:04:24;;;;;;;18.07;14.80;;;19.20;99.90;;;;;;5138951;27;20473;-75
2022/08/25 05:06:50;;;;;;;18.03;15.50;;;19.20;99.90;;;;;;5139853;27;20453;-75
2022/08/25 05:09:17;;;;;;;21.80;16.93;;;19.20;99.90;;;;;;5140484;27;20484;-75
2022/08/25 05:11:44;;;;;;;23.77;18.53;;;19.20;99.90;;;;;;5141066;27;20442;-75
2022/08/25 05:14:14;;;;;;;24.37;19.20;;;19.20;99.90;;;;;;5140645;27;20465;-76
2022/08/25 05:16:42;;;;;;;26.53;20.10;;;19.20;99.90;;;;;;5139080;27;21017;-75
2022/08/25 05:19:09;;;;;;;27.30;19.63;;;19.20;99.90;;;;;;5139238;27;20845;-75
2022/08/25 05:21:36;;;;;;;29.17;19.60;;;19.20;99.90;;;;;;5140714;27;20460;-76
2022/08/25 05:24:03;;;;;;;30.90;19.70;;;19.20;99.90;;;;;;5139340;27;20482;-76
2022/08/25 05:26:32;;;;;;;36.70;22.17;;;19.20;99.90;;;;;;5135381;27;20442;-76
2022/08/25 05:29:00;;;;;;;36.20;22.07;;;19.20;99.90;;;;;;5134566;27;20441;-76
2022/08/25 05:31:28;;;;;;;31.80;22.00;;;19.20;99.90;;;;;;5134703;27;20442;-76
2022/08/25 05:33:56;;;;;;;34.50;23.10;;;19.10;99.90;;;;;;5134461;27;20458;-77
2022/08/25 05:36:26;;;;;;;30.70;22.33;;;19.10;99.90;;;;;;5134279;27;20453;-76
2022/08/25 05:38:52;;;;;;;26.70;21.33;;;19.10;99.90;;;;;;5134520;27;20446;-75
2022/08/25 05:41:22;;;;;;;28.77;21.13;;;19.20;99.90;;;;;;5134380;27;20820;-75
2022/08/25 05:43:50;;;;;;;27.50;20.13;;;19.20;99.90;;;;;;5133912;27;20530;-75
2022/08/25 05:46:18;;;;;;;25.67;20.17;;;19.20;99.90;;;;;;5134456;27;20450;-74
2022/08/25 05:48:45;;;;;;;20.83;16.97;;;19.30;99.90;;;;;;5134525;27;20449;-76
2022/08/25 05:51:14;;;;;;;22.13;17.83;;;19.40;99.90;;;;;;5133943;27;20452;-76
2022/08/25 05:53:42;;;;;;;21.27;15.60;;;19.40;99.90;;;;;;5133875;27;20850;-76
2022/08/25 05:56:10;;;;;;;18.63;16.70;;;19.30;99.90;;;;;;5134077;28;20449;-76
2022/08/25 05:58:37;;;;;;;19.20;14.37;;;19.40;99.90;;;;;;5134151;28;20454;-76
2022/08/25 06:03:45;;;;;;;18.33;15.90;;;19.40;99.90;;;;;;5133453;28;20466;-76
2022/08/25 06:06:14;;;;;;;24.00;17.90;;;19.30;99.90;;;;;;5134055;28;20475;-76
2022/08/25 06:08:41;;;;;;;25.50;17.47;;;19.30;99.90;;;;;;5133949;28;20453;-76
2022/08/25 06:11:08;;;;;;;21.40;17.60;;;19.20;99.90;;;;;;5133930;28;20825;-76
2022/08/25 06:13:35;;;;;;;30.40;18.67;;;19.30;99.90;;;;;;5134067;27;20471;-76
2022/08/25 06:16:02;;;;;;;20.37;16.57;;;19.30;99.90;;;;;;5133932;28;20460;-76
2022/08/25 06:18:28;;;;;;;22.90;18.37;;;19.40;99.90;;;;;;5133807;28;20445;-76
2022/08/25 06:20:55;;;;;;;21.50;18.23;;;19.40;99.90;;;;;;5133972;28;20448;-76
2022/08/25 06:23:23;;;;;;;24.30;17.37;;;19.40;99.90;;;;;;5133832;28;20470;-76
2022/08/25 06:25:51;;;;;;;24.23;17.47;;;19.40;99.90;;;;;;5133501;27;20942;-76
2022/08/25 06:28:18;;;;;;;22.33;18.00;;;19.40;99.90;;;;;;5137265;27;20469;-76
2022/08/25 06:30:46;;;;;;;19.73;16.63;;;19.40;99.90;;;;;;5137864;27;20442;-76
2022/08/25 06:33:13;;;;;;;23.47;19.80;;;19.40;99.90;;;;;;5137424;27;20466;-76
2022/08/25 06:35:41;;;;;;;20.40;16.23;;;19.50;99.90;;;;;;5138725;27;20438;-77
2022/08/25 06:38:09;;;;;;;25.67;16.40;;;19.50;99.90;;;;;;5138597;27;20457;-75
2022/08/25 06:40:37;;;;;;;22.20;17.30;;;19.40;99.90;;;;;;5138692;27;20446;-76
2022/08/25 06:43:07;;;;;;;48.60;21.50;;;19.40;99.90;;;;;;5138313;27;20926;-75
2022/08/25 06:45:34;;;;;;;65.03;21.50;;;19.50;99.90;;;;;;5138186;27;20846;-75
2022/08/25 06:48:01;;;;;;;31.10;19.60;;;19.60;99.90;;;;;;5137780;27;20446;-75
2022/08/25 06:50:28;;;;;;;29.23;19.37;;;19.70;99.90;;;;;;5137358;27;20445;-75
2022/08/25 06:52:55;;;;;;;23.90;16.77;;;19.70;99.90;;;;;;5138066;27;20461;-75
2022/08/25 06:55:21;;;;;;;23.53;16.60;;;19.70;99.90;;;;;;5137652;27;20449;-75
2022/08/25 06:57:52;;;;;;;24.97;17.43;;;19.70;99.90;;;;;;5137436;27;20445;-76
2022/08/25 07:00:19;;;;;;;19.37;16.30;;;19.70;99.90;;;;;;5137203;27;20423;-76
2022/08/25 07:02:46;;;;;;;23.13;18.57;;;19.70;99.90;;;;;;5137305;27;20462;-76
2022/08/25 07:05:13;;;;;;;19.93;16.30;;;19.80;99.90;;;;;;5137202;27;21073;-76
2022/08/25 07:07:40;;;;;;;26.93;16.97;;;19.90;99.90;;;;;;5137336;27;20450;-76
2022/08/25 07:10:08;;;;;;;22.43;17.10;;;19.80;99.90;;;;;;5137177;27;20443;-76
2022/08/25 07:12:35;;;;;;;18.77;15.87;;;19.90;99.90;;;;;;5137075;27;20468;-76
2022/08/25 07:15:04;;;;;;;22.10;17.40;;;19.80;99.90;;;;;;5137027;27;20449;-76
2022/08/25 07:17:31;;;;;;;23.07;16.80;;;19.90;99.90;;;;;;5136983;27;20856;-76
2022/08/25 07:19:58;;;;;;;19.57;15.63;;;19.90;99.90;;;;;;5136934;27;20449;-76
2022/08/25 07:22:24;;;;;;;20.30;16.10;;;20.00;99.90;;;;;;5136891;27;20466;-76
2022/08/25 07:24:51;;;;;;;25.10;17.40;;;19.90;99.90;;;;;;5136976;27;20607;-76
2022/08/25 07:27:18;;;;;;;29.57;16.10;;;19.90;99.90;;;;;;5136751;27;20446;-76
2022/08/25 07:29:45;;;;;;;20.63;16.93;;;19.90;99.90;;;;;;5137561;27;20806;-76
2022/08/25 07:32:13;;;;;;;24.80;16.83;;;20.00;99.90;;;;;;5136752;27;20466;-76
2022/08/25 07:37:24;;;;;;;18.53;16.20;;;20.30;99.90;;;;;;5136619;27;20394;-76
2022/08/25 07:39:51;;;;;;;22.73;17.37;;;20.30;99.90;;;;;;5135658;27;20448;-75
2022/08/25 07:42:17;;;;;;;21.77;15.50;;;20.40;99.90;;;;;;5136194;27;20817;-76
2022/08/25 07:44:44;;;;;;;21.33;16.47;;;20.70;99.90;;;;;;5136048;27;20466;-76
2022/08/25 07:47:14;;;;;;;21.87;17.27;;;20.50;99.90;;;;;;5136205;27;20469;-76
2022/08/25 07:49:41;;;;;;;23.90;15.30;;;20.50;99.90;;;;;;5136560;27;20933;-76
2022/08/25 07:52:08;;;;;;;22.20;16.87;;;20.90;99.90;;;;;;5136444;27;20818;-75
2022/08/25 07:54:35;;;;;;;26.00;17.27;;;20.50;99.90;;;;;;5136298;27;20445;-76
2022/08/25 07:57:03;;;;;;;19.80;16.77;;;20.60;99.90;;;;;;5136314;27;20453;-76
2022/08/25 07:59:30;;;;;;;28.93;18.50;;;20.70;99.90;;;;;;5136034;27;20446;-76
2022/08/25 08:01:57;;;;;;;26.03;18.00;;;20.80;99.90;;;;;;5136191;27;20497;-77
2022/08/25 08:04:25;;;;;;;25.20;17.70;;;20.70;99.90;;;;;;5136194;27;20473;-76
2022/08/25 08:06:52;;;;;;;25.10;18.50;;;20.80;99.90;;;;;;5135879;27;20453;-76
2022/08/25 08:09:19;;;;;;;21.90;17.90;;;20.90;99.90;;;;;;5136185;27;20846;-76
2022/08/25 08:11:46;;;;;;;24.90;17.37;;;21.00;99.90;;;;;;5136169;27;20446;-76
2022/08/25 08:14:13;;;;;;;20.73;17.37;;;21.00;99.90;;;;;;5136131;27;20477;-76
2022/08/25 08:16:40;;;;;;;22.60;18.63;;;21.00;99.90;;;;;;5136337;27;20860;-76
2022/08/25 08:19:06;;;;;;;28.37;18.87;;;21.20;99.90;;;;;;5136337;27;20463;-76
2022/08/25 08:21:36;;;;;;;24.97;17.97;;;21.20;99.90;;;;;;5136260;27;20520;-76
2022/08/25 08:24:04;;;;;;;28.00;18.23;;;21.40;99.90;;;;;;5135935;27;20462;-76
2022/08/25 08:26:31;;;;;;;26.10;16.57;;;21.60;99.90;;;;;;5135906;27;20438;-76
2022/08/25 08:28:58;;;;;;;27.97;19.13;;;21.60;99.90;;;;;;5135873;27;20449;-76
2022/08/25 08:31:27;;;;;;;22.93;18.17;;;21.60;99.90;;;;;;5135522;27;20454;-76
2022/08/25 08:33:56;;;;;;;20.10;17.93;;;21.80;99.90;;;;;;5135496;27;20473;-76
2022/08/25 08:36:24;;;;;;;21.93;16.63;;;22.00;99.90;;;;;;5135249;27;20972;-76
2022/08/25 08:38:53;;;;;;;21.77;16.80;;;22.10;99.90;;;;;;5135340;27;20900;-76
2022/08/25 08:44:43;;;;;;;21.27;16.90;;;22.20;99.90;;;;;;5135081;27;20998;-76
2022/08/25 08:47:16;;;;;;;23.37;17.07;;;22.40;99.90;;;;;;5135188;27;20910;-76
2022/08/25 08:49:51;;;;;;;31.60;20.40;;;22.60;99.90;;;;;;5135263;27;20859;-75
2022/08/25 08:52:21;;;;;;;25.07;19.43;;;22.70;99.90;;;;;;5135078;27;21029;-76
2022/08/25 08:54:59;;;;;;;25.40;17.87;;;22.60;99.90;;;;;;5135502;27;20433;-76
2022/08/25 08:57:29;;;;;;;32.60;19.50;;;22.40;99.90;;;;;;5135461;27;20487;-76
2022/08/25 08:59:59;;;;;;;27.07;18.23;;;22.40;99.90;;;;;;5135218;27;20453;-76
2022/08/25 09:02:33;;;;;;;26.67;17.37;;;22.40;99.90;;;;;;5135011;27;20465;-76
2022/08/25 09:05:03;;;;;;;23.90;16.80;;;22.30;99.90;;;;;;5135560;27;20470;-76
2022/08/25 09:07:35;;;;;;;24.20;17.70;;;22.20;99.90;;;;;;5134864;27;20427;-77
2022/08/25 09:10:04;;;;;;;23.73;16.27;;;22.10;99.90;;;;;;5134721;27;20430;-77
2022/08/25 09:12:39;;;;;;;21.00;15.27;;;22.00;99.90;;;;;;5135029;27;20834;-77
2022/08/25 09:15:13;;;;;;;24.90;17.17;;;22.10;99.90;;;;;;5135022;27;20444;-77
2022/08/25 09:18:05;;;;;;;23.97;15.60;;;22.30;99.90;;;;;;5135062;27;20451;-77
2022/08/25 09:20:54;;;;;;;16.50;14.83;;;22.30;99.90;;;;;;5135064;27;20454;-77
2022/08/25 09:23:33;;;;;;;17.70;14.93;;;22.30;99.90;;;;;;5134659;27;20981;-77
2022/08/25 09:26:15;;;;;;;19.10;16.30;;;22.50;99.90;;;;;;5134993;27;20561;-76
2022/08/25 09:28:49;;;;;;;16.77;14.97;;;22.50;99.90;;;;;;5134809;27;20426;-76
2022/08/25 09:31:19;;;;;;;16.43;14.33;;;22.40;99.90;;;;;;5134675;27;20479;-76
2022/08/25 09:33:46;;;;;;;21.57;16.13;;;22.60;99.90;;;;;;5134786;27;20847;-76
2022/08/25 09:36:12;;;;;;;21.50;15.27;;;22.60;99.90;;;;;;5134415;27;20963;-76
2022/08/25 09:38:39;;;;;;;18.87;13.67;;;22.70;99.90;;;;;;5134307;27;20450;-76
2022/08/25 09:41:10;;;;;;;15.80;14.13;;;22.90;99.90;;;;;;5134760;27;20862;-77
2022/08/25 09:43:40;;;;;;;16.27;13.57;;;22.80;99.90;;;;;;5137828;22;20991;-71
2022/08/25 09:46:12;;;;;;;15.17;13.57;;;22.90;99.90;;;;;;5096480;28;20510;-71
2022/08/25 09:48:48;;;;;;;18.20;14.67;;;23.00;99.90;;;;;;5093479;28;20435;-72
2022/08/25 09:51:20;;;;;;;16.17;13.67;;;23.20;99.90;;;;;;5092779;28;20463;-72
2022/08/25 09:53:53;;;;;;;14.13;12.63;;;23.20;99.90;;;;;;5105745;28;20478;-72
2022/08/25 09:56:24;;;;;;;14.60;13.07;;;23.00;99.90;;;;;;5113478;28;20427;-72
2022/08/25 09:58:51;;;;;;;18.93;13.67;;;22.90;99.90;;;;;;5113381;28;20431;-73
2022/08/25 10:01:20;;;;;;;14.73;13.20;;;22.90;99.90;;;;;;5113659;28;20447;-71
2022/08/25 10:03:59;;;;;;;13.60;12.30;;;23.00;99.90;;;;;;5117205;28;20467;-71
2022/08/25 10:06:29;;;;;;;12.87;11.70;;;23.00;99.90;;;;;;5117482;28;20490;-72
2022/08/25 10:09:01;;;;;;;15.03;12.13;;;23.10;99.90;;;;;;5117366;28;20515;-71
2022/08/25 10:11:41;;;;;;;13.33;12.03;;;23.10;99.90;;;;;;5117419;28;20450;-72
2022/08/25 10:14:21;;;;;;;18.60;11.80;;;23.10;99.90;;;;;;5117172;28;20473;-72
2022/08/25 10:16:48;;;;;;;12.07;10.97;;;23.30;99.90;;;;;;5117447;28;20434;-72
2022/08/25 10:19:25;;;;;;;13.40;12.10;;;23.40;99.90;;;;;;5117370;28;20447;-72
2022/08/25 10:22:07;;;;;;;25.40;12.20;;;23.70;99.90;;;;;;5117124;28;20422;-72
2022/08/25 10:24:36;;;;;;;14.90;12.97;;;23.80;99.90;;;;;;5116610;28;20462;-72
2022/08/25 10:27:15;;;;;;;15.67;11.70;;;23.90;99.90;;;;;;5116481;28;20447;-72
2022/08/25 10:30:02;;;;;;;14.90;12.07;;;23.90;99.90;;;;;;5116492;28;20442;-71
2022/08/25 10:32:37;;;;;;;12.93;11.40;;;23.70;99.90;;;;;;5116574;28;20472;-72
2022/08/25 10:35:11;;;;;;;16.03;11.40;;;23.80;99.90;;;;;;5116533;28;20425;-71
2022/08/25 10:37:45;;;;;;;15.60;11.37;;;24.00;99.90;;;;;;5116468;28;20430;-72
2022/08/25 10:40:21;;;;;;;14.80;11.13;;;24.00;99.90;;;;;;5116765;28;20783;-71
2022/08/25 10:43:01;;;;;;;12.80;11.13;;;24.00;99.90;;;;;;5116913;28;20467;-71
2022/08/25 10:45:45;;;;;;;11.30;10.30;;;24.00;99.90;;;;;;5116664;28;20977;-72
2022/08/25 10:48:39;;;;;;;16.80;10.63;;;24.00;99.90;;;;;;5116294;28;20422;-75
2022/08/25 10:51:15;;;;;;;11.60;10.43;;;24.00;99.90;;;;;;5116970;28;20495;-72
2022/08/25 10:53:55;;;;;;;12.00;9.90;;;24.00;99.90;;;;;;5116811;28;20466;-72
2022/08/25 10:56:27;;;;;;;11.27;10.17;;;24.20;99.90;;;;;;5116626;28;20446;-72
2022/08/25 10:59:21;;;;;;;10.30;9.07;;;24.30;99.90;;;;;;5116220;28;20427;-72
2022/08/25 11:02:12;;;;;;;15.43;10.77;;;24.30;99.90;;;;;;5113056;28;20447;-71
2022/08/25 11:04:43;;;;;;;14.30;10.90;;;24.50;99.90;;;;;;5116038;28;20454;-72
2022/08/25 11:07:20;;;;;;;12.80;10.67;;;24.60;99.90;;;;;;5116594;28;20419;-72
2022/08/25 11:09:51;;;;;;;20.33;10.80;;;24.70;99.90;;;;;;5115859;28;20427;-72
2022/08/25 11:12:32;;;;;;;14.13;9.57;;;24.80;99.90;;;;;;5116686;28;20535;-73
2022/08/25 11:15:04;;;;;;;14.90;9.60;;;24.90;99.90;;;;;;5116318;28;20427;-72
2022/08/25 11:17:38;;;;;;;15.93;10.33;;;25.00;99.90;;;;;;5116262;28;20427;-72
2022/08/25 11:20:11;;;;;;;11.60;10.33;;;25.20;99.90;;;;;;5116607;28;20513;-73
2022/08/25 11:22:42;;;;;;;12.70;9.60;;;25.50;99.90;;;;;;5115409;28;20427;-72
2022/08/25 11:25:17;;;;;;;12.77;10.50;;;25.40;99.90;;;;;;5115403;28;20463;-72
2022/08/25 11:27:48;;;;;;;12.03;10.30;;;25.40;99.90;;;;;;5115523;28;20430;-72
2022/08/25 11:30:18;;;;;;;12.10;10.40;;;25.40;1.00;;;;;;5115339;28;20428;-72
2022/08/25 11:32:48;;;;;;;14.03;10.30;;;25.40;99.90;;;;;;5115450;28;20462;-72
2022/08/25 11:35:19;;;;;;;15.10;10.03;;;25.50;99.90;;;;;;5116326;28;20430;-72
2022/08/25 11:38:05;;;;;;;23.60;11.30;;;25.70;99.90;;;;;;5115604;28;20798;-72
2022/08/25 11:40:44;;;;;;;11.93;9.67;;;25.90;1.00;;;;;;5115210;28;20427;-73
2022/08/25 11:43:26;;;;;;;11.83;9.13;;;25.80;22.90;;;;;;5115146;28;20474;-72
2022/08/25 11:46:21;;;;;;;10.77;9.67;;;25.80;1.00;;;;;;5115542;28;20489;-72
2022/08/25 11:49:00;;;;;;;11.70;10.50;;;25.80;13.10;;;;;;5115719;28;20438;-72
2022/08/25 11:51:32;;;;;;;11.83;9.90;;;25.70;38.90;;;;;;5115669;28;20431;-72
2022/08/25 11:54:23;;;;;;;16.07;10.53;;;25.60;1.00;;;;;;5116064;28;20812;-72
2022/08/25 11:57:00;;;;;;;12.03;10.63;;;25.70;93.90;;;;;;5115927;28;20468;-72
2022/08/25 12:00:04;;;;;;;20.67;12.20;;;25.70;1.00;;;;;;5115344;28;20843;-72
2022/08/25 12:02:35;;;;;;;16.03;13.20;;;25.90;1.00;;;;;;5115647;28;20442;-72
2022/08/25 12:05:04;;;;;;;12.83;11.50;;;25.60;20.40;;;;;;5115078;28;20488;-72
2022/08/25 12:11:00;;;;;;;13.30;9.07;;;25.90;58.10;;;;;;5101508;28;20956;-72
2022/08/25 12:13:43;;;;;;;13.40;11.37;;;25.80;1.00;;;;;;5114808;28;20978;-73
2022/08/25 12:16:37;;;;;;;15.17;9.57;;;25.90;1.00;;;;;;5114000;28;20526;-72
2022/08/25 12:19:27;;;;;;;21.97;9.10;;;25.90;1.00;;;;;;5115584;28;20426;-73
2022/08/25 12:21:55;;;;;;;14.57;10.77;;;26.00;1.00;;;;;;5115038;28;20425;-72
2022/08/25 12:24:44;;;;;;;20.83;11.80;;;25.90;1.00;;;;;;5114227;28;20467;-72
2022/08/25 12:27:20;;;;;;;17.93;10.43;;;25.80;1.00;;;;;;5114713;28;20533;-73
2022/08/25 12:29:52;;;;;;;12.43;11.20;;;25.70;1.00;;;;;;5114727;28;20450;-72
2022/08/25 12:32:39;;;;;;;15.57;10.87;;;25.70;1.00;;;;;;5114559;28;20426;-71
2022/08/25 12:35:30;;;;;;;18.63;11.17;;;25.60;1.00;;;;;;5114221;28;20899;-71
2022/08/25 12:38:05;;;;;;;18.63;11.50;;;25.60;1.00;;;;;;5114419;28;20431;-71
2022/08/25 12:40:37;;;;;;;14.50;10.63;;;25.50;53.00;;;;;;5115104;28;20430;-72
2022/08/25 12:43:08;;;;;;;17.37;12.50;;;25.60;24.80;;;;;;5114058;28;20994;-71
2022/08/25 12:45:38;;;;;;;15.17;10.80;;;25.70;64.60;;;;;;5114310;28;20467;-72
2022/08/25 12:48:43;;;;;;;16.03;10.33;;;25.80;1.00;;;;;;5114337;28;20432;-73
2022/08/25 12:51:17;;;;;;;13.53;11.60;;;26.00;1.00;;;;;;5051402;28;20809;-73
2022/08/25 12:53:48;;;;;;;15.43;10.60;;;26.20;1.00;;;;;;5105528;28;20554;-72
2022/08/25 12:56:24;;;;;;;15.17;10.63;;;26.30;1.00;;;;;;5114857;28;20447;-74
2022/08/25 12:59:03;;;;;;;12.93;11.67;;;26.30;99.90;;;;;;5114635;28;20779;-73
2022/08/25 13:01:42;;;;;;;19.67;13.53;;;26.10;99.90;;;;;;5114765;28;20430;-72